tititudorancea.com
Station Historical Data
Daily Summary for October 12, 2018 Units:  Metric    English   Both
« Previous Day
Next Day »
Daily Weekly Monthly Yearly Custom
  High: Low: Average:
Temperature: -17.8 °C 3.3 °C 12.9 °C
Dew Point: -17.8 °C 2.4 °C 6.2 °C
Humidity: Humidity % 34 % 68 %
Wind Speed: 0 km/h 0 km/h 8 km/h
Wind Gust: 0 km/h - -
Wind:- - ESE
Pressure: 0 hPa 1018.8 hPa -
Precipitation: 0.2 mm    
Historical Graphs
 
 
Ararat weather Find more about Weather in Ararat, AU


 



 


Tabular Data for October 12, 2018
Time Temperature Dew Point Pressure Wind Wind Speed Wind Gust Humidity Rainfall Rate (Hourly)
-17.8 °C -17.8 °C 0 hPa Calm     Humidity % 0 mm
00:04 8.5 °C 7.3 °C 1023.2 hPa South 11.3 km/h 8.9 km/h 92 % 0 mm
00:09 8.5 °C 7.3 °C 1022.9 hPa North 11.1 km/h 8.7 km/h 92 % 0 mm
00:14 8.5 °C 7.3 °C 1022.9 hPa South 9.3 km/h 8.4 km/h 92 % 0 mm
00:19 8.5 °C 7.3 °C 1023.2 hPa South 9.7 km/h 6.8 km/h 92 % 0 mm
00:24 8.5 °C 7.3 °C 1022.9 hPa North 13 km/h 9.8 km/h 92 % 0 mm
00:29 8.4 °C 7.2 °C 1022.9 hPa North 9.3 km/h 5.6 km/h 92 % 0 mm
00:34 8.4 °C 7.2 °C 1022.9 hPa North 11.3 km/h 4.2 km/h 92 % 0 mm
00:39 8.4 °C 7.2 °C 1023.2 hPa South 6.4 km/h 5.8 km/h 92 % 0 mm
00:44 8.4 °C 7.2 °C 1022.9 hPa North 7.4 km/h 6.4 km/h 92 % 0 mm
00:49 8.3 °C 7.1 °C 1022.9 hPa North 7.4 km/h 4.5 km/h 92 % 0 mm
00:54 8.2 °C 7 °C 1022.9 hPa South 5.6 km/h 4.2 km/h 92 % 0 mm
00:59 8.2 °C 6.9 °C 1022.9 hPa North 7.4 km/h 5.6 km/h 92 % 0 mm
01:04 8.2 °C 6.9 °C 1022.9 hPa South 5.6 km/h 5.5 km/h 92 % 0 mm
01:09 8.2 °C 6.9 °C 1022.9 hPa North 5.6 km/h 4.2 km/h 92 % 0 mm
01:14 8.1 °C 6.9 °C 1022.9 hPa North 7.4 km/h 5 km/h 92 % 0 mm
01:19 8.1 °C 6.9 °C 1022.9 hPa South 5.6 km/h 5.6 km/h 92 % 0 mm
01:24 8.1 °C 6.8 °C 1022.9 hPa North 7.4 km/h 6.1 km/h 92 % 0 mm
01:29 8 °C 6.8 °C 1022.9 hPa South 5.6 km/h 4.7 km/h 92 % 0 mm
01:34 8 °C 6.8 °C 1022.9 hPa South 7.4 km/h 5.8 km/h 92 % 0 mm
01:39 8 °C 6.8 °C 1022.9 hPa South 5.6 km/h 4.8 km/h 92 % 0 mm
01:44 7.9 °C 6.7 °C 1022.6 hPa North 6.4 km/h 5.1 km/h 92 % 0 mm
01:49 7.9 °C 6.7 °C 1022.6 hPa North 5.6 km/h 5.5 km/h 92 % 0 mm
01:54 7.8 °C 6.8 °C 1022.6 hPa North 8 km/h 6 km/h 93 % 0 mm
01:59 7.8 °C 6.7 °C 1022.6 hPa South 5.6 km/h 3.5 km/h 93 % 0 mm
02:04 7.8 °C 6.7 °C 1022.6 hPa North 6.4 km/h 4.8 km/h 93 % 0 mm
02:09 7.7 °C 6.5 °C 1022.6 hPa South 5.6 km/h 3.1 km/h 92 % 0 mm
02:14 7.7 °C 6.7 °C 1022.6 hPa South 7.4 km/h 3.4 km/h 93 % 0 mm
02:19 7.7 °C 6.7 °C 1022.6 hPa South 5.6 km/h 3.2 km/h 93 % 0 mm
02:24 7.7 °C 6.6 °C 1022.6 hPa South 5.6 km/h 4.5 km/h 93 % 0 mm
02:29 7.6 °C 6.5 °C 1022.2 hPa South 5.6 km/h 1.8 km/h 93 % 0 mm
02:34 7.5 °C 6.4 °C 1022.2 hPa North 1.9 km/h 1.3 km/h 93 % 0 mm
02:39 7.4 °C 6.4 °C 1022.2 hPa South 3.7 km/h 2.3 km/h 93 % 0 mm
02:44 7.4 °C 6.3 °C 1022.2 hPa North 3.7 km/h 1.6 km/h 93 % 0 mm
02:49 7.4 °C 6.3 °C 1022.2 hPa North 3.7 km/h 0.3 km/h 93 % 0 mm
02:54 7.3 °C 6.2 °C 1022.2 hPa South 1.9 km/h 0.3 km/h 93 % 0 mm
02:59 7.2 °C 6.1 °C 1022.2 hPa Calm     93 % 0 mm
03:04 6.9 °C 5.7 °C 1022.2 hPa Calm     92 % 0 mm
03:09 6.7 °C 5.4 °C 1022.2 hPa Calm     92 % 0 mm
03:14 6.6 °C 5.3 °C 1021.9 hPa Calm     92 % 0 mm
03:19 6.4 °C 5.2 °C 1021.9 hPa Calm     92 % 0 mm
03:24 6.2 °C 4.9 °C 1021.9 hPa Calm     92 % 0 mm
03:29 6.1 °C 5.1 °C 1021.9 hPa Calm     93 % 0 mm
03:34 5.9 °C 4.9 °C 1021.9 hPa Calm     93 % 0 mm
03:39 5.8 °C 4.8 °C 1021.9 hPa Calm     93 % 0 mm
03:44 5.8 °C 4.7 °C 1021.9 hPa Calm     93 % 0 mm
03:49 5.6 °C 4.6 °C 1021.9 hPa Calm     93 % 0 mm
03:54 5.4 °C 4.2 °C 1021.9 hPa Calm     92 % 0 mm
03:59 5.3 °C 4.2 °C 1021.9 hPa Calm     93 % 0 mm
04:04 5.2 °C 4.1 °C 1021.9 hPa Calm     93 % 0 mm
04:09 5 °C 3.9 °C 1021.9 hPa Calm     93 % 0 mm
04:14 4.9 °C 3.9 °C 1021.9 hPa Calm     93 % 0.2 mm
04:19 4.8 °C 3.8 °C 1021.9 hPa Calm     93 % 0.2 mm
04:24 4.8 °C 3.7 °C 1021.9 hPa Calm     93 % 0.2 mm
04:29 4.8 °C 3.9 °C 1022.2 hPa Calm     94 % 0.2 mm
04:34 4.7 °C 3.7 °C 1022.2 hPa Calm     93 % 0.2 mm
04:39 4.7 °C 3.6 °C 1022.2 hPa Calm     93 % 0.2 mm
04:44 4.7 °C 3.8 °C 1022.2 hPa Calm     94 % 0.2 mm
04:49 4.7 °C 3.8 °C 1022.2 hPa Calm     94 % 0.2 mm
04:54 4.8 °C 3.9 °C 1022.2 hPa Calm     94 % 0.2 mm
04:59 4.8 °C 3.9 °C 1022.2 hPa Calm     94 % 0.2 mm
05:04 4.7 °C 3.8 °C 1022.2 hPa Calm     94 % 0.2 mm
05:09 4.7 °C 3.8 °C 1022.2 hPa Calm     94 % 0.2 mm
05:14 4.7 °C 3.8 °C 1022.2 hPa Calm     94 % 0 mm
05:19 4.7 °C 3.8 °C 1022.2 hPa Calm     94 % 0 mm
05:24 4.7 °C 3.8 °C 1022.2 hPa Calm     94 % 0 mm
05:29 4.7 °C 3.8 °C 1022.6 hPa North 3.7 km/h 1.8 km/h 94 % 0 mm
05:34 4.7 °C 3.8 °C 1022.6 hPa South 5.6 km/h 2.1 km/h 94 % 0 mm
05:39 4.6 °C 3.7 °C 1022.6 hPa Calm     94 % 0 mm
05:44 4.4 °C 3.5 °C 1022.6 hPa Calm     94 % 0 mm
05:49 4.3 °C 3.4 °C 1022.6 hPa Calm     94 % 0 mm
05:54 4.2 °C 3.3 °C 1022.6 hPa Calm     94 % 0 mm
05:59 4.1 °C 3.2 °C 1022.6 hPa Calm     94 % 0 mm
06:04 4 °C 3.1 °C 1022.9 hPa Calm     94 % 0 mm
06:09 3.9 °C 3.1 °C 1022.9 hPa Calm     94 % 0 mm
06:14 4 °C 3.1 °C 1022.9 hPa South 3.7 km/h 0.3 km/h 94 % 0 mm
06:19 4 °C 3.1 °C 1022.9 hPa Calm     94 % 0 mm
06:24 4 °C 3.1 °C 1022.9 hPa North 1.9 km/h 0.8 km/h 94 % 0 mm
06:29 3.9 °C 3.1 °C 1022.9 hPa Calm     94 % 0 mm
06:34 3.9 °C 3 °C 1023.2 hPa Calm     94 % 0 mm
06:39 3.9 °C 3.2 °C 1023.2 hPa Calm     95 % 0 mm
06:44 3.9 °C 3.2 °C 1023.2 hPa Calm     95 % 0 mm
06:49 3.8 °C 2.9 °C 1023.2 hPa Calm     94 % 0 mm
06:54 3.7 °C 2.8 °C 1023.6 hPa Calm     94 % 0 mm
06:59 3.6 °C 2.7 °C 1023.6 hPa North 3.7 km/h 0.5 km/h 94 % 0 mm
07:04 3.4 °C 2.6 °C 1023.6 hPa North 1.9 km/h   94 % 0 mm
07:09 3.3 °C 2.4 °C 1023.6 hPa Calm     94 % 0 mm
07:14 3.4 °C 2.7 °C 1023.6 hPa Calm     95 % 0 mm
07:19 3.6 °C 2.8 °C 1023.9 hPa Calm     95 % 0 mm
07:24 3.6 °C 2.8 °C 1023.6 hPa South 3.7 km/h 2.3 km/h 95 % 0 mm
07:29 3.6 °C 2.8 °C 1023.9 hPa North 3.7 km/h 0.6 km/h 95 % 0 mm
07:34 3.7 °C 3 °C 1023.9 hPa Calm     95 % 0 mm
07:39 4.2 °C 3.6 °C 1023.9 hPa Calm     96 % 0 mm
07:44 4.4 °C 3.9 °C 1023.9 hPa Calm     96 % 0 mm
07:49 4.5 °C 3.8 °C 1023.9 hPa Calm     95 % 0 mm
07:54 4.8 °C 4.2 °C 1023.9 hPa Calm     96 % 0 mm
07:59 5 °C 4.3 °C 1023.9 hPa Calm     95 % 0 mm
08:04 5.3 °C 4.7 °C 1023.9 hPa Calm     96 % 0 mm
08:09 6 °C 5.4 °C 1024.3 hPa Calm     96 % 0 mm
08:14 6.7 °C 6.3 °C 1024.3 hPa Calm   1.3 km/h 97 % 0 mm
08:19 7.3 °C 6.8 °C 1024.3 hPa South 5.6 km/h 3.4 km/h 97 % 0 mm
08:24 7.8 °C 7.4 °C 1024.3 hPa South 5.6 km/h 4.7 km/h 97 % 0 mm
08:29 8.3 °C 7.8 °C 1024.3 hPa South 5.6 km/h 3.4 km/h 97 % 0 mm
08:34 8.8 °C 8.3 °C 1024.3 hPa South 9.3 km/h 7.1 km/h 97 % 0 mm
08:39 9.2 °C 8.6 °C 1024.6 hPa South 9.3 km/h 6.9 km/h 96 % 0 mm
08:44 9.7 °C 9.1 °C 1024.6 hPa South 8 km/h 7.4 km/h 96 % 0 mm
08:49 10.2 °C 9.3 °C 1024.6 hPa South 11.1 km/h 9.2 km/h 94 % 0 mm
08:54 10.8 °C 9.6 °C 1024.6 hPa South 14.5 km/h 5.8 km/h 92 % 0 mm
08:59 11.4 °C 9.3 °C 1024.6 hPa NE 20.9 km/h 11.1 km/h 87 % 0 mm
09:04 11.9 °C 9.1 °C 1024.6 hPa NNE 16.1 km/h 8.4 km/h 83 % 0 mm
09:09 12.3 °C 8.6 °C 1024.6 hPa NNE 18.5 km/h 12.1 km/h 78 % 0 mm
09:14 12.7 °C 8.8 °C 1024.6 hPa NNE 16.7 km/h 8.9 km/h 77 % 0 mm
09:19 12.9 °C 8.4 °C 1024.6 hPa NNE 16.7 km/h 8.9 km/h 74 % 0 mm
09:24 13.1 °C 7.9 °C 1024.6 hPa NNE 20.4 km/h 11.1 km/h 71 % 0 mm
09:29 13.2 °C 7.9 °C 1024.9 hPa NNE 22.2 km/h 13.2 km/h 70 % 0 mm
09:34 13.5 °C 8.1 °C 1024.9 hPa NNE 16.1 km/h 11.6 km/h 70 % 0 mm
09:39 13.7 °C 7.7 °C 1024.9 hPa NNE 18.5 km/h 18 km/h 67 % 0 mm
09:44 13.9 °C 7.8 °C 1024.9 hPa NNE 14.8 km/h 8.9 km/h 67 % 0 mm
09:49 14.1 °C 7.8 °C 1024.9 hPa NNE 16.7 km/h 12.9 km/h 66 % 0 mm
09:54 14.2 °C 7.9 °C 1024.9 hPa NE 18.5 km/h 9.5 km/h 66 % 0 mm
09:59 14.6 °C 8.1 °C 1024.6 hPa NNE 13 km/h 9.8 km/h 65 % 0 mm
10:04 14.7 °C 7.7 °C 1024.6 hPa NNE 18.5 km/h 10.3 km/h 63 % 0 mm
10:09 14.7 °C 7.7 °C 1024.6 hPa NNE 18.5 km/h 8.7 km/h 63 % 0 mm
10:14 14.8 °C 7.6 °C 1024.9 hPa NNE 22.2 km/h 11.7 km/h 62 % 0 mm
10:19 15 °C 7.6 °C 1024.6 hPa NNE 18.5 km/h 13.8 km/h 61 % 0 mm
10:24 15.1 °C 7.4 °C 1024.6 hPa NE 22.2 km/h 9.5 km/h 60 % 0 mm
10:29 15.3 °C 7.6 °C 1024.6 hPa NNE 18.5 km/h 11.7 km/h 60 % 0 mm
10:34 15.6 °C 7.4 °C 1024.6 hPa NNE 20.4 km/h 9.3 km/h 58 % 0 mm
10:39 15.6 °C 7.6 °C 1024.6 hPa NNE 9.3 km/h 5.5 km/h 59 % 0 mm
10:44 15.8 °C 7.6 °C 1024.6 hPa NE 18.5 km/h 11.1 km/h 58 % 0 mm
10:49 15.9 °C 7.7 °C 1024.6 hPa NE 13 km/h 7.4 km/h 58 % 0 mm
10:54 15.9 °C 7.9 °C 1024.6 hPa NNE 13 km/h 8.9 km/h 59 % 0 mm
10:59 16 °C 7.7 °C 1024.6 hPa NE 11.1 km/h 9.7 km/h 58 % 0 mm
11:04 16.2 °C 8.2 °C 1024.3 hPa NNE 11.3 km/h 6 km/h 59 % 0 mm
11:09 16.6 °C 7.8 °C 1024.3 hPa NE 16.7 km/h 8.7 km/h 56 % 0 mm
11:14 16.6 °C 8 °C 1024.3 hPa NE 16.7 km/h 5.5 km/h 57 % 0 mm
11:19 16.8 °C 7.4 °C 1024.3 hPa NNE 18.5 km/h 12.6 km/h 54 % 0 mm
11:24 16.7 °C 7.3 °C 1024.3 hPa NNE 20.4 km/h 5.6 km/h 54 % 0 mm
11:29 16.8 °C 7.2 °C 1024.3 hPa NE 22.2 km/h 10.6 km/h 53 % 0 mm
11:34 16.9 °C 7.8 °C 1024.3 hPa NNE 18.5 km/h 8.9 km/h 55 % 0 mm
11:39 17.2 °C 7.6 °C 1024.3 hPa NE 11.3 km/h 7.6 km/h 53 % 0 mm
11:44 17.1 °C 7.4 °C 1024.3 hPa NNE 18.5 km/h 10.6 km/h 53 % 0 mm
11:49 17.1 °C 7.7 °C 1024.3 hPa NNE 6.4 km/h 2.4 km/h 54 % 0 mm
11:54 17.6 °C 7.6 °C 1023.9 hPa NE 14.8 km/h 8.2 km/h 52 % 0 mm
11:59 17.6 °C 7.6 °C 1023.9 hPa ENE 11.1 km/h 7.9 km/h 52 % 0 mm
12:04 17.6 °C 7.1 °C 1023.6 hPa NE 20.4 km/h 10.1 km/h 50 % 0 mm
12:09 17.5 °C 7.2 °C 1023.6 hPa NNE 14.8 km/h 9.5 km/h 51 % 0 mm
12:14 17.6 °C 7.6 °C 1023.6 hPa NNE 5.6 km/h 2.6 km/h 52 % 0 mm
12:19 18 °C 7.1 °C 1023.6 hPa NNE 13 km/h 1.4 km/h 49 % 0 mm
12:24 18.3 °C 7.4 °C 1023.2 hPa NNE 16.7 km/h 9 km/h 49 % 0 mm
12:29 18.3 °C 7.7 °C 1023.2 hPa NE 16.7 km/h 7.4 km/h 50 % 0 mm
12:34 18.4 °C 7.5 °C 1023.2 hPa NE 11.3 km/h 6.9 km/h 49 % 0 mm
12:39 18.3 °C 7.9 °C 1023.2 hPa NE 16.7 km/h 6.8 km/h 51 % 0 mm
12:44 18.3 °C 8.3 °C 1022.9 hPa ENE 13 km/h 6.3 km/h 52 % 0 mm
12:49 18.6 °C 8.2 °C 1022.9 hPa NNE 20.4 km/h 11.6 km/h 51 % 0 mm
12:54 18.4 °C 8.3 °C 1022.9 hPa ENE 17.7 km/h 11.7 km/h 52 % 0 mm
12:59 18.3 °C 7.9 °C 1022.6 hPa ENE 18.5 km/h 10.9 km/h 51 % 0 mm
13:04 18.2 °C 8.2 °C 1022.6 hPa NE 13 km/h 7.2 km/h 52 % 0 mm
13:09 18.3 °C 8.3 °C 1022.6 hPa ENE 11.1 km/h 5 km/h 52 % 0 mm
13:14 18.6 °C 8 °C 1022.6 hPa NE 18.5 km/h 12.2 km/h 50 % 0 mm
13:19 18.7 °C 7.7 °C 1022.2 hPa NE 22.2 km/h 10.9 km/h 49 % 0 mm
13:24 18.8 °C 7.8 °C 1022.2 hPa ENE 18.5 km/h 7.7 km/h 49 % 0 mm
13:29 19.2 °C 7.9 °C 1022.2 hPa ENE 18.5 km/h 7.2 km/h 48 % 0 mm
13:34 19.3 °C 7.4 °C 1022.2 hPa NE 22.2 km/h 12.4 km/h 46 % 0 mm
13:39 19.3 °C 7.1 °C 1021.9 hPa East 18.5 km/h 15.1 km/h 45 % 0 mm
13:44 19.6 °C 7.3 °C 1021.9 hPa ENE 11.1 km/h 6.3 km/h 45 % 0 mm
13:49 19.6 °C 7 °C 1021.9 hPa ENE 9.7 km/h 4.5 km/h 44 % 0 mm
13:54 19.7 °C 7.7 °C 1021.9 hPa ENE 16.7 km/h 10.8 km/h 46 % 0 mm
13:59 20.1 °C 8.1 °C 1021.9 hPa ENE 6.4 km/h 3.9 km/h 46 % 0 mm
14:04 19.8 °C 7.6 °C 1021.9 hPa East 9.7 km/h 7.6 km/h 45 % 0 mm
14:09 19.8 °C 7.8 °C 1021.6 hPa ENE 7.4 km/h 6 km/h 46 % 0 mm
14:14 19.9 °C 7.7 °C 1021.6 hPa ENE 11.1 km/h 7.4 km/h 45 % 0 mm
14:19 20 °C 7.4 °C 1021.6 hPa ENE 13 km/h 8.9 km/h 44 % 0 mm
14:24 20.3 °C 6.9 °C 1021.2 hPa NE 24.1 km/h 15 km/h 42 % 0 mm
14:29 20.5 °C 6.8 °C 1021.2 hPa East 17.7 km/h 12.4 km/h 41 % 0 mm
14:34 20.4 °C 6 °C 1021.2 hPa ENE 20.4 km/h 10.6 km/h 39 % 0 mm
14:39 20.4 °C 6.7 °C 1021.2 hPa ENE 16.1 km/h 13 km/h 41 % 0 mm
14:44 20.5 °C 6.8 °C 1021.2 hPa NNE 12.9 km/h 10 km/h 41 % 0 mm
14:49 20.5 °C 6.4 °C 1021.2 hPa ENE 17.7 km/h 14.5 km/h 40 % 0 mm
14:54 20.7 °C 6.3 °C 1020.9 hPa East 22.2 km/h 16.1 km/h 39 % 0 mm
14:59 20.9 °C 6.8 °C 1020.9 hPa East 14.8 km/h 6.4 km/h 40 % 0 mm
15:04 20.9 °C 6.1 °C 1020.9 hPa East 18.5 km/h 10.5 km/h 38 % 0 mm
15:09 20.9 °C 6.4 °C 1020.9 hPa North 20.4 km/h 13.7 km/h 39 % 0 mm
15:14 20.7 °C 6.3 °C 1020.9 hPa NE 16.7 km/h 14.3 km/h 39 % 0 mm
15:19 20.8 °C 6.3 °C 1020.5 hPa NE 16.7 km/h 11.6 km/h 39 % 0 mm
15:24 20.7 °C 6.6 °C 1020.5 hPa NE 18.5 km/h 9.7 km/h 40 % 0 mm
15:29 20.7 °C 6.6 °C 1020.5 hPa ENE 9.3 km/h 5.6 km/h 40 % 0 mm
15:34 20.8 °C 6.3 °C 1020.2 hPa NE 13 km/h 10 km/h 39 % 0 mm
15:39 21 °C 6.5 °C 1020.2 hPa East 18.5 km/h 10.5 km/h 39 % 0 mm
15:44 21.2 °C 6.3 °C 1020.2 hPa ENE 13 km/h 5.6 km/h 38 % 0 mm
15:49 21.2 °C 6.7 °C 1020.2 hPa ENE 11.1 km/h 5.3 km/h 39 % 0 mm
15:54 21.4 °C 6.9 °C 1020.2 hPa East 14.8 km/h 10.5 km/h 39 % 0 mm
15:59 21.6 °C 6.6 °C 1019.9 hPa East 11.3 km/h 3.9 km/h 38 % 0 mm
16:04 21.4 °C 6.5 °C 1019.9 hPa East 9.3 km/h 7.6 km/h 38 % 0 mm
16:09 21.2 °C 5.9 °C 1019.9 hPa ENE 13 km/h 12.7 km/h 37 % 0 mm
16:14 20.9 °C 6.1 °C 1019.9 hPa NE 16.7 km/h 12.2 km/h 38 % 0 mm
16:19 20.9 °C 6.1 °C 1019.9 hPa ENE 11.1 km/h 5.5 km/h 38 % 0 mm
16:24 21.1 °C 5.8 °C 1019.9 hPa ENE 17.7 km/h 10.1 km/h 37 % 0 mm
16:29 21.2 °C 5.1 °C 1019.9 hPa ENE 16.7 km/h 8.5 km/h 35 % 0 mm
16:34 21.1 °C 4.6 °C 1019.9 hPa ENE 11.1 km/h 4.5 km/h 34 % 0 mm
16:39 21.1 °C 5.4 °C 1019.9 hPa ENE 18.5 km/h 5.6 km/h 36 % 0 mm
16:44 21.3 °C 5.2 °C 1019.5 hPa NE 8 km/h 5.5 km/h 35 % 0 mm
16:49 21.4 °C 5.7 °C 1019.5 hPa NNE 11.3 km/h 11.9 km/h 36 % 0 mm
16:54 21.4 °C 5.7 °C 1019.5 hPa NE 11.3 km/h 8.5 km/h 36 % 0 mm
16:59 21.4 °C 5.3 °C 1019.5 hPa NNE 9.3 km/h 4.5 km/h 35 % 0 mm
17:04 21.4 °C 5.7 °C 1019.5 hPa NE 11.1 km/h 6.9 km/h 36 % 0 mm
17:09 21.3 °C 6 °C 1019.5 hPa NE 16.7 km/h 9 km/h 37 % 0 mm
17:14 21.3 °C 5.2 °C 1019.5 hPa ENE 16.7 km/h 12.9 km/h 35 % 0 mm
17:19 21.1 °C 5.1 °C 1019.5 hPa ENE 9.7 km/h 10.6 km/h 35 % 0 mm
17:24 21.2 °C 5.6 °C 1019.5 hPa ENE 7.4 km/h 4.7 km/h 36 % 0 mm
17:29 21.3 °C 5.2 °C 1019.5 hPa NE 16.7 km/h 6.9 km/h 35 % 0 mm
17:34 21.1 °C 5.4 °C 1019.5 hPa ENE 9.3 km/h 5.6 km/h 36 % 0 mm
17:39 21.1 °C 5.8 °C 1019.5 hPa ENE 13 km/h 5.5 km/h 37 % 0 mm
17:44 21.1 °C 5 °C 1019.5 hPa ENE 9.7 km/h 7.2 km/h 35 % 0 mm
17:49 21 °C 4.6 °C 1019.5 hPa ENE 16.7 km/h 3.9 km/h 34 % 0 mm
17:54 21 °C 4.9 °C 1019.5 hPa ENE 7.4 km/h 5.5 km/h 35 % 0 mm
17:59 20.9 °C 4.9 °C 1019.5 hPa ENE 11.1 km/h 6.4 km/h 35 % 0 mm
18:04 20.9 °C 5.7 °C 1019.5 hPa ENE 9.7 km/h 3.5 km/h 37 % 0 mm
18:09 20.9 °C 5.3 °C 1019.5 hPa ENE 11.1 km/h 4.5 km/h 36 % 0 mm
18:14 20.9 °C 5.7 °C 1019.5 hPa ENE 7.4 km/h 0.3 km/h 37 % 0 mm
18:19 21.1 °C 5.4 °C 1019.5 hPa ENE 13 km/h 7.2 km/h 36 % 0 mm
18:24 21 °C 5.3 °C 1019.2 hPa ENE 7.4 km/h 5.8 km/h 36 % 0 mm
18:29 20.9 °C 5.3 °C 1019.2 hPa ENE 13 km/h 5.5 km/h 36 % 0 mm
18:34 20.9 °C 5.7 °C 1019.5 hPa ENE 6.4 km/h 3.1 km/h 37 % 0 mm
18:39 20.9 °C 5.7 °C 1019.2 hPa ENE 5.6 km/h 2.7 km/h 37 % 0 mm
18:44 20.9 °C 6.1 °C 1019.2 hPa ENE 3.2 km/h 0.2 km/h 38 % 0 mm
18:49 20.9 °C 5.7 °C 1019.2 hPa ENE 5.6 km/h 2.7 km/h 37 % 0 mm
18:54 20.8 °C 5.6 °C 1019.2 hPa ENE 3.7 km/h 5 km/h 37 % 0 mm
18:59 20.7 °C 5.1 °C 1019.2 hPa ENE 5.6 km/h 3.7 km/h 36 % 0 mm
19:04 20.4 °C 5.3 °C 1019.2 hPa ENE 5.6 km/h 2.9 km/h 37 % 0 mm
19:05 20.4 °C 5.3 °C 1019.2 hPa ENE 5.6 km/h 2.1 km/h 37 % 0 mm
19:34 19.5 °C 5.6 °C 1018.8 hPa ENE 5.6 km/h   40 % 0 mm
19:39 19.2 °C 5.3 °C 1018.8 hPa ENE 5.6 km/h 1.8 km/h 40 % 0 mm
19:44 18.9 °C 6.1 °C 1018.8 hPa Calm     43 % 0 mm
19:49 18.6 °C 6.1 °C 1018.8 hPa Calm     44 % 0 mm
19:54 18.2 °C 6.1 °C 1018.8 hPa Calm     45 % 0 mm
19:59 17.6 °C 6.1 °C 1018.8 hPa Calm     47 % 0 mm
20:04 17.1 °C 5.9 °C 1019.2 hPa Calm     48 % 0 mm
20:09 16.6 °C 6.1 °C 1019.2 hPa Calm     50 % 0 mm
20:14 16.1 °C 6.5 °C 1019.2 hPa ENE 3.7 km/h 1.8 km/h 53 % 0 mm
20:19 15.7 °C 6.4 °C 1019.2 hPa ENE 5.6 km/h 1.1 km/h 54 % 0 mm
20:24 15.4 °C 6.7 °C 1019.2 hPa ENE 5.6 km/h 3.2 km/h 56 % 0 mm
20:29 15 °C 6.8 °C 1019.2 hPa ENE 5.6 km/h 4.2 km/h 58 % 0 mm
20:34 14.8 °C 7.1 °C 1019.2 hPa ENE 1.9 km/h 1.9 km/h 60 % 0 mm
20:39 14.6 °C 7.2 °C 1019.5 hPa Calm     61 % 0 mm
20:44 14.5 °C 7.6 °C 1019.5 hPa ENE 5.6 km/h 1 km/h 63 % 0 mm
20:49 14.4 °C 7.7 °C 1019.5 hPa ENE 5.6 km/h 1.6 km/h 64 % 0 mm
20:54 14.3 °C 7.8 °C 1019.5 hPa ENE 4.8 km/h 2.7 km/h 65 % 0 mm
20:59 14.2 °C 7.7 °C 1019.5 hPa ENE 9.3 km/h 4.5 km/h 65 % 0 mm
21:04 14.1 °C 7.8 °C 1019.5 hPa ENE 7.4 km/h 4.2 km/h 66 % 0 mm
21:09 14.1 °C 7.8 °C 1019.5 hPa ENE 5.6 km/h 4 km/h 66 % 0 mm
21:14 14.1 °C 8 °C 1019.5 hPa ENE 5.6 km/h 5 km/h 67 % 0 mm
21:19 14.1 °C 8 °C 1019.5 hPa ENE 6.4 km/h 6 km/h 67 % 0 mm
21:24 14.2 °C 8.3 °C 1019.5 hPa ENE 9.3 km/h 5.6 km/h 68 % 0 mm
21:29 14.2 °C 8.4 °C 1019.5 hPa ENE 11.1 km/h 4.5 km/h 68 % 0 mm
21:34 14.2 °C 8.2 °C 1019.5 hPa ENE 9.7 km/h 6.1 km/h 67 % 0 mm
21:39 14.2 °C 8.4 °C 1019.9 hPa ENE 13 km/h 5.3 km/h 68 % 0 mm
21:44 14.2 °C 8.2 °C 1019.5 hPa ENE 7.4 km/h 4.5 km/h 67 % 0 mm
21:49 14.1 °C 8.1 °C 1019.9 hPa ENE 9.3 km/h 4.2 km/h 67 % 0 mm
21:54 14 °C 8.2 °C 1019.9 hPa ENE 5.6 km/h 3.2 km/h 68 % 0 mm
21:59 13.9 °C 8.1 °C 1019.9 hPa ENE 5.6 km/h 3.7 km/h 68 % 0 mm
22:04 13.8 °C 7.9 °C 1019.9 hPa ENE 3.7 km/h 1.8 km/h 68 % 0 mm
22:09 13.6 °C 8 °C 1019.9 hPa ENE 3.7 km/h 0.6 km/h 69 % 0 mm
22:14 13.4 °C 7.8 °C 1019.9 hPa Calm   0.2 km/h 69 % 0 mm
22:19 13.2 °C 7.9 °C 1019.9 hPa ENE 1.6 km/h   70 % 0 mm
22:24 13.1 °C 7.8 °C 1019.9 hPa ENE 5.6 km/h 4.5 km/h 70 % 0 mm
22:29 13 °C 7.7 °C 1019.9 hPa ENE 1.9 km/h   70 % 0 mm
22:34 12.8 °C 7.4 °C 1019.9 hPa Calm     70 % 0 mm
22:39 12.6 °C 7.4 °C 1019.9 hPa Calm     71 % 0 mm
22:44 12.4 °C 7.3 °C 1019.9 hPa Calm     71 % 0 mm
22:49 12.2 °C 7.1 °C 1019.9 hPa Calm     71 % 0 mm
22:54 12 °C 7.1 °C 1020.2 hPa Calm     72 % 0 mm
22:59 11.8 °C 7.1 °C 1020.2 hPa ENE 1.9 km/h 1 km/h 73 % 0 mm
23:04 11.6 °C 7.1 °C 1020.2 hPa Calm     74 % 0 mm
23:09 11.4 °C 6.9 °C 1019.9 hPa Calm     74 % 0 mm
23:14 11.3 °C 7 °C 1019.9 hPa Calm     75 % 0 mm
23:19 11.2 °C 6.9 °C 1019.9 hPa Calm     75 % 0 mm
23:24 11.1 °C 7.1 °C 1020.2 hPa Calm     76 % 0 mm
23:29 10.9 °C 6.9 °C 1019.9 hPa Calm     76 % 0 mm
23:34 10.7 °C 6.8 °C 1019.9 hPa Calm     77 % 0 mm
23:39 10.5 °C 6.8 °C 1019.9 hPa Calm     78 % 0 mm
23:44 10.3 °C 6.8 °C 1019.9 hPa Calm     79 % 0 mm
23:49 10.2 °C 6.7 °C 1019.9 hPa Calm     79 % 0 mm
23:54 10 °C 6.5 °C 1019.9 hPa Calm     79 % 0 mm
23:59 9.9 °C 6.8 °C 1019.9 hPa Calm     81 % 0 mm
Ararat Weather
Compliments of Weather Underground - 2.25 mb
Click here to send mail.


ABOUT

Live weather data from Ararat, Victoria, Australia, 3377
Data uploaded from Cumulus every 5 minutes to Weather Underground.
This site then downloads the raw data for formatting and display.
Metric and imperial data can be displayed. Graphs and historical data available.
Includes Sun and Moon times and rain image live from BOM.

Check out Ararat Weather on Facebook, Twitter and Google +

Help support ongoing costs by checking out the ads





Follow @AraratWeather